createdAt,value
2019-04-14T00:01:23.745Z,1.61
2019-04-14T00:04:02.727Z,1.57
2019-04-14T00:06:30.888Z,1.51
2019-04-14T00:09:01.065Z,1.48
2019-04-14T00:11:30.139Z,1.43
2019-04-14T00:13:58.907Z,1.41
2019-04-14T00:16:29.103Z,1.37
2019-04-14T00:18:57.677Z,1.31
2019-04-14T00:21:26.611Z,1.30
2019-04-14T00:23:56.623Z,1.28
2019-04-14T00:26:27.210Z,1.28
2019-04-14T00:28:55.785Z,1.26
2019-04-14T00:31:26.174Z,1.25
2019-04-14T00:33:56.286Z,1.21
2019-04-14T00:36:34.739Z,1.17
2019-04-14T00:39:03.171Z,1.12
2019-04-14T00:41:47.477Z,1.10
2019-04-14T00:44:14.666Z,1.08
2019-04-14T00:46:51.676Z,1.04
2019-04-14T00:49:20.119Z,1.00
2019-04-14T00:51:50.624Z,0.98
2019-04-14T00:54:19.621Z,0.94
2019-04-14T00:56:47.846Z,0.92
2019-04-14T00:59:17.941Z,0.89
2019-04-14T01:01:46.332Z,0.86
2019-04-14T01:04:16.525Z,0.84
2019-04-14T01:06:44.942Z,0.83
2019-04-14T01:09:15.148Z,0.81
2019-04-14T01:11:44.371Z,0.78
2019-04-14T01:14:13.197Z,0.76
2019-04-14T01:16:42.988Z,0.73
2019-04-14T01:19:11.700Z,0.71
2019-04-14T01:21:41.346Z,0.69
2019-04-14T01:24:10.129Z,0.68
2019-04-14T01:26:39.983Z,0.64
2019-04-14T01:29:08.713Z,0.60
2019-04-14T01:31:38.247Z,0.59
2019-04-14T01:34:08.349Z,0.57
2019-04-14T01:36:36.703Z,0.56
2019-04-14T01:39:06.947Z,0.56
2019-04-14T01:41:35.371Z,0.55
2019-04-14T01:44:04.689Z,0.53
2019-04-14T01:46:35.468Z,0.55
2019-04-14T01:49:03.120Z,0.54
2019-04-14T01:51:44.120Z,0.50
2019-04-14T01:54:47.254Z,0.50
2019-04-14T01:57:52.570Z,0.48
2019-04-14T02:00:38.138Z,0.46
2019-04-14T02:03:06.583Z,0.44
2019-04-14T02:05:36.419Z,0.43
2019-04-14T02:08:05.039Z,0.42
2019-04-14T02:10:34.738Z,0.39
2019-04-14T02:13:04.885Z,0.38
2019-04-14T02:15:33.083Z,0.34
2019-04-14T02:18:03.131Z,0.31
2019-04-14T02:20:31.912Z,0.29
2019-04-14T02:23:01.698Z,0.26
2019-04-14T02:25:29.860Z,0.23
2019-04-14T02:28:00.134Z,0.21
2019-04-14T02:30:36.235Z,0.20
2019-04-14T02:35:55.905Z,0.15
2019-04-14T02:38:34.483Z,0.12
2019-04-14T02:40:59.727Z,0.07
2019-04-14T02:43:23.671Z,0.05
2019-04-14T02:45:50.490Z,-0.01
2019-04-14T02:48:41.415Z,-0.06
2019-04-14T02:50:48.191Z,-0.09
2019-04-14T02:55:54.228Z,-0.14
2019-04-14T02:58:20.143Z,-0.16
2019-04-14T03:00:47.991Z,-0.18
2019-04-14T03:03:16.909Z,-0.20
2019-04-14T03:05:54.429Z,-0.23
2019-04-14T03:08:15.324Z,-0.20
2019-04-14T03:10:45.942Z,-0.20
2019-04-14T03:13:15.855Z,-0.21
2019-04-14T03:15:53.619Z,-0.24
2019-04-14T03:18:37.857Z,-0.26
2019-04-14T03:26:51.781Z,-0.33
2019-04-14T03:29:29.490Z,-0.34
2019-04-14T03:34:34.158Z,-0.40
2019-04-14T03:37:30.912Z,-0.40
2019-04-14T03:39:23.322Z,-0.42
2019-04-14T03:44:19.003Z,-0.49
2019-04-14T03:49:21.651Z,-0.55
2019-04-14T03:52:03.711Z,-0.57
2019-04-14T03:54:07.902Z,-0.56
2019-04-14T03:56:49.013Z,-0.58
2019-04-14T03:59:17.663Z,-0.59
2019-04-14T04:01:47.894Z,-0.60
2019-04-14T04:04:16.189Z,-0.60
2019-04-14T04:06:46.288Z,-0.61
2019-04-14T04:09:14.992Z,-0.61
2019-04-14T04:11:43.744Z,-0.58
2019-04-14T04:14:13.926Z,-0.57
2019-04-14T04:16:48.459Z,-0.57
2019-04-14T04:19:23.109Z,-0.56
2019-04-14T04:22:17.180Z,-0.56
2019-04-14T04:25:13.883Z,-0.56
2019-04-14T04:28:08.065Z,-0.58
2019-04-14T04:30:53.714Z,-0.58
2019-04-14T04:33:54.440Z,-0.59
2019-04-14T04:36:27.155Z,-0.58
2019-04-14T04:39:01.702Z,-0.60
2019-04-14T04:41:29.693Z,-0.61
2019-04-14T04:43:58.905Z,-0.58
2019-04-14T04:46:28.760Z,-0.59
2019-04-14T04:49:07.250Z,-0.57
2019-04-14T04:51:26.854Z,-0.56
2019-04-14T04:53:57.011Z,-0.53
2019-04-14T04:56:25.468Z,-0.53
2019-04-14T04:58:54.552Z,-0.54
2019-04-14T05:01:23.589Z,-0.52
2019-04-14T05:03:53.611Z,-0.52
2019-04-14T05:07:06.020Z,-0.50
2019-04-14T05:10:04.718Z,-0.49
2019-04-14T05:12:48.287Z,-0.47
2019-04-14T05:15:36.624Z,-0.44
2019-04-14T05:18:07.058Z,-0.40
2019-04-14T05:20:35.603Z,-0.35
2019-04-14T05:23:04.245Z,-0.31
2019-04-14T05:25:34.096Z,-0.24
2019-04-14T05:28:02.744Z,-0.17
2019-04-14T05:30:32.897Z,-0.11
2019-04-14T05:33:01.143Z,-0.03
2019-04-14T05:35:31.283Z,0.01
2019-04-14T05:37:59.739Z,0.07
2019-04-14T05:40:30.023Z,0.11
2019-04-14T05:42:58.482Z,0.16
2019-04-14T05:45:28.516Z,0.21
2019-04-14T05:47:56.975Z,0.25
2019-04-14T05:50:27.208Z,0.29
2019-04-14T05:52:55.771Z,0.33
2019-04-14T05:55:24.746Z,0.38
2019-04-14T05:57:54.546Z,0.42
2019-04-14T06:00:23.474Z,0.44
2019-04-14T06:02:52.732Z,0.49
2019-04-14T06:05:21.783Z,0.55
2019-04-14T06:07:50.985Z,0.64
2019-04-14T06:10:20.343Z,0.73
2019-04-14T06:12:49.583Z,0.82
2019-04-14T06:15:18.837Z,0.94
2019-04-14T06:17:48.031Z,1.07
2019-04-14T06:20:17.295Z,1.21
2019-04-14T06:22:46.505Z,1.36
2019-04-14T06:25:15.733Z,1.46
2019-04-14T06:27:44.957Z,1.54
2019-04-14T06:30:51.730Z,1.64
2019-04-14T06:33:29.197Z,1.72
2019-04-14T06:36:26.218Z,1.80
2019-04-14T06:39:01.808Z,1.79
2019-04-14T06:41:31.017Z,1.85
2019-04-14T06:44:00.389Z,1.91
2019-04-14T06:46:29.685Z,1.99
2019-04-14T06:48:58.903Z,2.18
2019-04-14T06:51:28.341Z,2.31
2019-04-14T06:53:57.556Z,2.39
2019-04-14T06:56:26.837Z,2.50
2019-04-14T06:58:56.559Z,2.59
2019-04-14T07:01:25.878Z,2.60
2019-04-14T07:03:55.541Z,2.64
2019-04-14T07:06:24.901Z,2.77
2019-04-14T07:08:54.325Z,2.85
2019-04-14T07:11:23.585Z,3.01
2019-04-14T07:13:53.071Z,3.15
2019-04-14T07:16:22.491Z,3.29
2019-04-14T07:18:51.902Z,3.42
2019-04-14T07:21:21.417Z,3.54
2019-04-14T07:23:50.629Z,3.66
2019-04-14T07:26:19.849Z,3.86
2019-04-14T07:28:56.631Z,4.05
2019-04-14T07:31:39.561Z,4.31
2019-04-14T07:34:43.306Z,4.46
2019-04-14T07:37:46.732Z,4.71
2019-04-14T07:40:41.133Z,4.84
2019-04-14T07:43:19.131Z,4.93
2019-04-14T07:45:55.886Z,4.97
2019-04-14T07:48:45.949Z,5.08
2019-04-14T07:51:46.381Z,5.16
2019-04-14T07:54:41.357Z,5.12
2019-04-14T07:57:28.053Z,5.04
2019-04-14T08:00:02.249Z,5.17
2019-04-14T08:02:44.306Z,5.53
2019-04-14T08:05:28.433Z,5.90
2019-04-14T08:07:58.109Z,6.24
2019-04-14T08:10:27.386Z,6.42
2019-04-14T08:12:56.809Z,6.57
2019-04-14T08:15:26.317Z,6.61
2019-04-14T08:17:56.071Z,6.74
2019-04-14T08:20:27.792Z,6.61
2019-04-14T08:22:57.584Z,6.53
2019-04-14T08:25:24.309Z,6.68
2019-04-14T08:27:53.607Z,7.15
2019-04-14T08:30:22.873Z,7.15
2019-04-14T08:32:52.248Z,7.40
2019-04-14T08:35:21.749Z,7.54
2019-04-14T08:37:51.155Z,7.76
2019-04-14T08:40:20.610Z,7.76
2019-04-14T08:43:12.721Z,7.73
2019-04-14T08:45:55.085Z,7.72
2019-04-14T08:48:34.122Z,7.71
2019-04-14T08:51:17.400Z,7.71
2019-04-14T08:53:53.509Z,7.80
2019-04-14T08:56:47.837Z,7.91
2019-04-14T08:59:24.062Z,8.00
2019-04-14T09:02:18.445Z,7.99
2019-04-14T09:05:15.969Z,7.96
2019-04-14T09:07:49.809Z,7.95
2019-04-14T09:10:24.979Z,7.84
2019-04-14T09:12:55.721Z,7.88
2019-04-14T09:15:24.956Z,7.97
2019-04-14T09:17:54.175Z,8.21
2019-04-14T09:20:23.482Z,8.21
2019-04-14T09:22:52.775Z,8.35
2019-04-14T09:25:21.976Z,8.35
2019-04-14T09:27:51.281Z,8.54
2019-04-14T09:30:20.553Z,8.65
2019-04-14T09:32:49.773Z,8.55
2019-04-14T09:35:19.057Z,8.47
2019-04-14T09:37:48.399Z,8.33
2019-04-14T09:40:17.601Z,8.01
2019-04-14T09:42:46.837Z,8.05
2019-04-14T09:45:16.047Z,8.17
2019-04-14T09:47:45.283Z,8.30
2019-04-14T09:50:14.603Z,8.45
2019-04-14T09:52:43.875Z,8.55
2019-04-14T09:55:13.153Z,8.56
2019-04-14T09:57:42.381Z,8.53
2019-04-14T10:00:11.565Z,8.62
2019-04-14T10:02:40.870Z,8.52
2019-04-14T10:05:10.115Z,8.54
2019-04-14T10:07:39.379Z,8.43
2019-04-14T10:10:08.576Z,8.32
2019-04-14T10:12:37.860Z,8.20
2019-04-14T10:15:07.124Z,7.93
2019-04-14T10:17:36.355Z,7.93
2019-04-14T10:20:05.707Z,7.93
2019-04-14T10:22:34.965Z,7.95
2019-04-14T10:25:04.488Z,7.89
2019-04-14T10:27:33.742Z,7.90
2019-04-14T10:30:03.158Z,7.84
2019-04-14T10:32:32.481Z,7.91
2019-04-14T10:35:02.075Z,7.78
2019-04-14T10:37:31.393Z,7.78
2019-04-14T10:40:00.709Z,7.75
2019-04-14T10:42:29.981Z,7.74
2019-04-14T10:44:59.307Z,7.97
2019-04-14T10:47:28.522Z,7.97
2019-04-14T10:49:57.799Z,7.96
2019-04-14T10:52:26.998Z,8.06
2019-04-14T10:54:56.261Z,8.13
2019-04-14T10:57:25.587Z,8.11
2019-04-14T10:59:54.791Z,8.05
2019-04-14T11:02:24.007Z,7.84
2019-04-14T11:04:53.297Z,7.61
2019-04-14T11:07:27.549Z,7.51
2019-04-14T11:09:57.009Z,7.35
2019-04-14T11:12:26.218Z,7.20
2019-04-14T11:14:55.520Z,7.12
2019-04-14T11:17:24.799Z,7.10
2019-04-14T11:19:54.124Z,7.08
2019-04-14T11:22:23.323Z,6.98
2019-04-14T11:24:52.629Z,6.94
2019-04-14T11:27:21.895Z,6.94
2019-04-14T11:29:53.972Z,6.94
2019-04-14T11:32:39.442Z,6.91
2019-04-14T11:35:39.967Z,6.01
2019-04-14T11:38:18.665Z,6.86
2019-04-14T11:40:50.169Z,6.74
2019-04-14T11:43:19.400Z,6.55
2019-04-14T11:45:48.615Z,6.55
2019-04-14T11:48:17.828Z,6.44
2019-04-14T11:50:47.081Z,6.39
2019-04-14T11:53:16.349Z,6.35
2019-04-14T11:55:45.642Z,6.39
2019-04-14T11:58:14.820Z,6.32
2019-04-14T12:01:03.151Z,6.33
2019-04-14T12:03:50.259Z,6.34
2019-04-14T12:06:56.726Z,6.39
2019-04-14T12:09:34.930Z,6.45
2019-04-14T12:12:05.503Z,6.47
2019-04-14T12:14:34.842Z,6.51
2019-04-14T12:17:04.104Z,6.50
2019-04-14T12:19:33.337Z,6.52
2019-04-14T12:22:08.618Z,6.51
2019-04-14T12:24:31.789Z,6.50
2019-04-14T12:27:00.998Z,6.43
2019-04-14T12:29:30.528Z,6.37
2019-04-14T12:31:59.646Z,6.38
2019-04-14T12:34:28.676Z,6.36
2019-04-14T12:36:57.949Z,6.36
2019-04-14T12:39:27.195Z,6.42
2019-04-14T12:42:14.434Z,6.50
2019-04-14T12:45:08.766Z,6.57
2019-04-14T12:47:59.883Z,6.61
2019-04-14T12:50:33.181Z,6.65
2019-04-14T12:53:02.413Z,6.85
2019-04-14T12:55:31.628Z,6.99
2019-04-14T12:58:03.063Z,6.99
2019-04-14T13:00:44.443Z,6.94
2019-04-14T13:03:13.720Z,6.92
2019-04-14T13:05:42.982Z,7.06
2019-04-14T13:08:12.246Z,7.06
2019-04-14T13:10:41.463Z,7.13
2019-04-14T13:13:10.694Z,7.00
2019-04-14T13:15:39.923Z,7.02
2019-04-14T13:18:09.151Z,6.97
2019-04-14T13:20:38.516Z,6.97
2019-04-14T13:23:07.788Z,6.90
2019-04-14T13:25:37.058Z,6.85
2019-04-14T13:28:06.301Z,6.80
2019-04-14T13:30:38.613Z,6.85
2019-04-14T13:33:07.821Z,6.84
2019-04-14T13:35:37.428Z,6.86
2019-04-14T13:38:06.661Z,6.81
2019-04-14T13:40:35.914Z,6.71
2019-04-14T13:43:05.263Z,6.63
2019-04-14T13:45:34.510Z,6.50
2019-04-14T13:48:03.741Z,6.50
2019-04-14T13:50:33.024Z,6.46
2019-04-14T13:53:02.232Z,6.34
2019-04-14T13:55:31.472Z,6.24
2019-04-14T13:58:00.754Z,6.14
2019-04-14T14:00:29.988Z,6.05
2019-04-14T14:02:59.256Z,5.90
2019-04-14T14:05:28.577Z,5.83
2019-04-14T14:07:57.786Z,5.68
2019-04-14T14:10:27.038Z,5.68
2019-04-14T14:13:06.018Z,5.67
2019-04-14T14:15:53.349Z,5.69
2019-04-14T14:18:31.788Z,5.70
2019-04-14T14:21:22.816Z,5.71
2019-04-14T14:24:11.168Z,5.73
2019-04-14T14:26:40.840Z,5.78
2019-04-14T14:29:10.070Z,5.74
2019-04-14T14:31:39.332Z,5.72
2019-04-14T14:34:08.786Z,5.66
2019-04-14T14:36:38.057Z,5.64
2019-04-14T14:39:08.057Z,5.58
2019-04-14T14:41:37.324Z,5.59
2019-04-14T14:44:06.534Z,5.57
2019-04-14T14:46:44.373Z,5.51
2019-04-14T14:49:19.363Z,5.49
2019-04-14T14:51:54.241Z,5.44
2019-04-14T14:54:23.494Z,5.42
2019-04-14T14:56:52.750Z,5.39
2019-04-14T14:59:21.971Z,5.35
2019-04-14T15:01:51.290Z,5.35
2019-04-14T15:04:20.493Z,5.31
2019-04-14T15:06:49.752Z,5.26
2019-04-14T15:09:19.070Z,5.22
2019-04-14T15:11:48.312Z,5.18
2019-04-14T15:14:17.677Z,5.14
2019-04-14T15:16:46.947Z,5.11
2019-04-14T15:19:16.169Z,5.11
2019-04-14T15:21:45.432Z,5.08
2019-04-14T15:24:14.684Z,5.04
2019-04-14T15:26:43.930Z,5.03
2019-04-14T15:29:13.185Z,5.02
2019-04-14T15:31:42.495Z,5.03
2019-04-14T15:34:11.745Z,5.09
2019-04-14T15:36:41.058Z,5.12
2019-04-14T15:39:10.310Z,5.10
2019-04-14T15:41:39.544Z,5.11
2019-04-14T15:44:08.828Z,5.13
2019-04-14T15:46:38.113Z,5.14
2019-04-14T15:49:07.356Z,5.13
2019-04-14T15:51:36.672Z,5.13
2019-04-14T15:54:06.010Z,5.10
2019-04-14T15:56:57.539Z,5.11
2019-04-14T15:59:45.008Z,5.10
2019-04-14T16:02:22.719Z,5.10
2019-04-14T16:05:12.553Z,5.09
2019-04-14T16:07:57.241Z,5.07
2019-04-14T16:10:48.114Z,5.06
2019-04-14T16:13:31.459Z,5.02
2019-04-14T16:16:32.015Z,5.03
2019-04-14T16:19:23.382Z,5.02
2019-04-14T16:21:52.628Z,4.99
2019-04-14T16:24:21.985Z,4.99
2019-04-14T16:27:00.658Z,5.00
2019-04-14T16:29:48.988Z,5.00
2019-04-14T16:32:43.290Z,5.01
2019-04-14T16:35:16.483Z,5.01
2019-04-14T16:37:45.775Z,5.04
2019-04-14T16:40:14.989Z,5.07
2019-04-14T16:42:44.332Z,5.08
2019-04-14T16:45:13.586Z,5.06
2019-04-14T16:47:42.901Z,5.09
2019-04-14T16:50:12.184Z,5.10
2019-04-14T16:52:55.088Z,5.09
2019-04-14T16:55:42.458Z,5.09
2019-04-14T16:58:29.213Z,5.04
2019-04-14T17:01:04.564Z,5.04
2019-04-14T17:03:33.816Z,5.02
2019-04-14T17:06:03.067Z,4.99
2019-04-14T17:08:32.302Z,4.97
2019-04-14T17:11:01.516Z,4.94
2019-04-14T17:13:33.424Z,4.92
2019-04-14T17:16:20.375Z,4.93
2019-04-14T17:19:11.688Z,4.93
2019-04-14T17:21:44.539Z,4.93
2019-04-14T17:24:33.215Z,4.93
2019-04-14T17:27:27.113Z,4.91
2019-04-14T17:30:11.370Z,4.92
2019-04-14T17:33:08.467Z,4.90
2019-04-14T17:35:44.960Z,4.88
2019-04-14T17:38:20.944Z,4.88
2019-04-14T17:41:12.035Z,4.87
2019-04-14T17:43:46.665Z,4.86
2019-04-14T17:46:26.917Z,4.87
2019-04-14T17:49:23.239Z,4.88
2019-04-14T17:52:11.633Z,4.88
2019-04-14T17:54:59.475Z,4.90
2019-04-14T17:57:46.564Z,4.89
2019-04-14T18:00:23.317Z,4.89
2019-04-14T18:02:59.784Z,4.86
2019-04-14T18:05:33.294Z,4.87
2019-04-14T18:08:10.369Z,4.85
2019-04-14T18:10:51.943Z,4.84
2019-04-14T18:13:31.288Z,3.84
2019-04-14T18:16:07.497Z,4.84
2019-04-14T18:19:10.761Z,4.83
2019-04-14T18:21:39.989Z,4.83
2019-04-14T18:24:09.215Z,4.84
2019-04-14T18:26:38.515Z,4.82
2019-04-14T18:29:25.731Z,4.81
2019-04-14T18:32:14.118Z,4.82
2019-04-14T18:34:50.757Z,4.80
2019-04-14T18:37:33.105Z,4.83
2019-04-14T18:40:08.656Z,4.88
2019-04-14T18:42:49.117Z,4.92
2019-04-14T18:45:28.508Z,4.99
2019-04-14T18:48:16.880Z,5.01
2019-04-14T18:51:04.059Z,5.05
2019-04-14T18:53:42.231Z,5.04
2019-04-14T18:56:24.306Z,5.06
2019-04-14T18:59:09.627Z,5.06
2019-04-14T19:01:40.748Z,5.06
2019-04-14T19:04:10.022Z,5.09
2019-04-14T19:06:39.257Z,5.08
2019-04-14T19:09:08.512Z,5.08
2019-04-14T19:11:49.646Z,5.10
2019-04-14T19:14:23.243Z,5.09
2019-04-14T19:17:05.224Z,5.07
2019-04-14T19:19:36.110Z,5.07
2019-04-14T19:22:05.344Z,5.10
2019-04-14T19:24:34.633Z,5.12
2019-04-14T19:27:03.896Z,5.13
2019-04-14T19:29:33.145Z,5.13
2019-04-14T19:32:02.377Z,5.13
2019-04-14T19:34:31.613Z,5.15
2019-04-14T19:37:00.838Z,5.16
2019-04-14T19:39:30.086Z,5.19
2019-04-14T19:41:59.310Z,5.19
2019-04-14T19:44:28.564Z,5.20
2019-04-14T19:46:57.794Z,5.19
2019-04-14T19:49:27.034Z,5.21
2019-04-14T19:51:56.312Z,5.22
2019-04-14T19:54:25.596Z,5.22
2019-04-14T19:56:54.848Z,5.23
2019-04-14T19:59:24.118Z,5.23
2019-04-14T20:01:53.359Z,5.23
2019-04-14T20:04:22.613Z,5.25
2019-04-14T20:06:51.840Z,5.26
2019-04-14T20:09:21.096Z,5.25
2019-04-14T20:11:50.345Z,5.27
2019-04-14T20:14:19.606Z,5.28
2019-04-14T20:16:55.510Z,5.29
2019-04-14T20:19:39.778Z,5.29
2019-04-14T20:22:32.198Z,5.31
2019-04-14T20:25:33.959Z,5.29
2019-04-14T20:28:17.307Z,5.30
2019-04-14T20:30:53.349Z,5.30
2019-04-14T20:33:22.699Z,5.29
2019-04-14T20:35:52.030Z,5.27
2019-04-14T20:38:21.267Z,5.23
2019-04-14T20:40:50.526Z,5.22
2019-04-14T20:43:19.765Z,5.21
2019-04-14T20:45:49.011Z,5.20
2019-04-14T20:48:18.226Z,5.20
2019-04-14T20:50:47.448Z,5.18
2019-04-14T20:53:16.808Z,5.17
2019-04-14T20:55:47.551Z,5.17
2019-04-14T20:58:15.314Z,5.18
2019-04-14T21:00:44.619Z,5.17
2019-04-14T21:03:31.792Z,5.17
2019-04-14T21:06:14.819Z,5.17
2019-04-14T21:09:21.180Z,5.16
2019-04-14T21:11:56.318Z,5.16
2019-04-14T21:14:34.618Z,5.17
2019-04-14T21:17:11.972Z,5.17
2019-04-14T21:19:59.310Z,5.17
2019-04-14T21:22:36.038Z,5.17
2019-04-14T21:25:27.525Z,5.17
2019-04-14T21:28:18.833Z,5.14
2019-04-14T21:30:55.416Z,5.13
2019-04-14T21:33:42.430Z,5.12
2019-04-14T21:36:16.152Z,5.08
2019-04-14T21:39:03.174Z,5.06
2019-04-14T21:41:32.578Z,5.01
2019-04-14T21:44:01.792Z,4.98
2019-04-14T21:46:31.073Z,4.96
2019-04-14T21:49:00.291Z,4.94
2019-04-14T21:51:47.455Z,4.90
2019-04-14T21:54:16.698Z,4.87
2019-04-14T21:56:45.943Z,4.86
2019-04-14T21:59:22.130Z,4.86
2019-04-14T22:02:19.495Z,4.85
2019-04-14T22:05:06.282Z,4.85
2019-04-14T22:07:46.383Z,4.86
2019-04-14T22:10:33.192Z,4.85
2019-04-14T22:13:02.439Z,4.88
2019-04-14T22:15:31.697Z,4.89
2019-04-14T22:18:01.038Z,4.90
2019-04-14T22:20:30.301Z,4.93
2019-04-14T22:22:59.619Z,4.94
2019-04-14T22:25:28.904Z,4.97
2019-04-14T22:27:58.262Z,4.99
2019-04-14T22:30:27.570Z,4.99
2019-04-14T22:32:56.825Z,5.01
2019-04-14T22:35:26.124Z,5.02
2019-04-14T22:37:55.443Z,5.03
2019-04-14T22:40:24.748Z,5.04
2019-04-14T22:42:54.028Z,5.05
2019-04-14T22:45:23.280Z,5.07
2019-04-14T22:47:52.529Z,5.07
2019-04-14T22:50:21.792Z,5.08
2019-04-14T22:52:51.049Z,5.09
2019-04-14T22:55:20.311Z,5.08
2019-04-14T22:57:49.536Z,5.07
2019-04-14T23:00:36.866Z,5.06
2019-04-14T23:03:13.775Z,5.05
2019-04-14T23:06:11.322Z,5.02
2019-04-14T23:08:47.749Z,4.99
2019-04-14T23:11:40.449Z,4.95
2019-04-14T23:14:26.468Z,4.80
2019-04-14T23:17:20.497Z,4.80
2019-04-14T23:19:55.177Z,4.80
2019-04-14T23:22:32.440Z,4.73
2019-04-14T23:25:01.682Z,4.66
2019-04-14T23:27:30.895Z,4.60
2019-04-14T23:30:00.200Z,4.55
2019-04-14T23:32:29.437Z,4.50
2019-04-14T23:34:58.787Z,4.48
2019-04-14T23:37:27.904Z,4.46
2019-04-14T23:39:57.297Z,4.44
2019-04-14T23:42:26.511Z,4.44
2019-04-14T23:44:55.730Z,4.43
2019-04-14T23:47:24.943Z,4.44
2019-04-14T23:49:56.986Z,4.46
2019-04-14T23:52:23.410Z,4.46
2019-04-14T23:54:52.665Z,4.46
2019-04-14T23:57:21.868Z,4.47
2019-04-14T23:59:51.076Z,4.49
